Vitsentzos Kornaros — SXNX — position and weather

sailwx.info

Track history (hours):
 
Tides and Currents Weather Stations Pressure Air Temp Water Temp Dewpoint Dewpoint Depression Visibility Wind Speed Wind Dir Waves Ship Positions

Vitsentzos Kornaros

Last reported at 2016-May-31 01:33 UTC. Time now 2016-May-31 02:09 UTC.
Position N 35°56' E 023°24'.

Length 128 m; draft 4.5 m.

Type: Passenger vessel. MMSI: 239311000.

Date/timePositionNaut miles runAvg speedWind from/ knotsBaromVisibWave heightAir tempDewpointWater temp
2016-May-31 01:33N 35°56' E 023°24'6310.0
2016-May-30 19:14N 36°59' E 023°26'912.2
2016-May-30 18:31N 37°07' E 023°30'1212.3
2016-May-30 17:34N 37°18' E 023°35'1312.5
2016-May-30 16:34N 37°30' E 023°39'1211.8
2016-May-30 15:34N 37°42' E 023°41'1212.2
2016-May-30 14:34N 37°54' E 023°37'3 3.4
2016-May-30 13:33N 37°57' E 023°38'0 0.0
2016-May-30 12:34N 37°57' E 023°38'0 0.0
2016-May-30 11:33N 37°57' E 023°38'0 0.0
2016-May-30 10:34N 37°57' E 023°38'0 0.0
2016-May-30 09:33N 37°57' E 023°38'0 0.0
2016-May-30 08:34N 37°57' E 023°38'0 0.0
2016-May-30 07:34N 37°57' E 023°38'0 0.0
2016-May-30 06:34N 37°57' E 023°38'0 0.0
2016-May-30 05:34N 37°57' E 023°38'0 0.0
2016-May-30 04:33N 37°57' E 023°38'0 0.0
2016-May-30 03:34N 37°57' E 023°38'10 9.9
2016-May-30 02:34N 37°47' E 023°42'1313.4
2016-May-30 01:34N 37°34' E 023°42'1414.2
2016-May-30 00:34N 37°21' E 023°36'1414.3
2016-May-29 23:33N 37°07' E 023°30'1414.2
2016-May-29 22:33N 36°54' E 023°25'1414.3
2016-May-29 21:33N 36°40' E 023°21'1513.7
2016-May-29 20:28N 36°25' E 023°15'19 6.6
2016-May-29 17:33N 36°06' E 023°13'1313.5
2016-May-29 16:33N 35°53' E 023°18'8 8.3
2016-May-29 15:32N 35°49' E 023°26'1414.5
2016-May-29 14:34N 35°38' E 023°37'7 6.7
2016-May-29 13:33N 35°31' E 023°38'0 0.0
2016-May-29 12:29N 35°31' E 023°38'0 0.0
2016-May-29 11:33N 35°31' E 023°38'0 0.0
2016-May-29 10:19N 35°31' E 023°38'0 0.0
2016-May-29 09:32N 35°31' E 023°38'0 0.0
2016-May-29 08:30N 35°31' E 023°38'0 0.0
2016-May-29 02:33N 35°31' E 023°38'0 0.0
2016-May-28 15:16N 35°31' E 023°38'0 0.0
2016-May-28 09:33N 35°31' E 023°38'9 1.3
2016-May-28 02:18N 35°40' E 023°36'3812.0
2016-May-27 23:07N 36°12' E 023°10'5011.1
2016-May-27 18:33N 36°60' E 023°27'1414.4
2016-May-27 17:33N 37°14' E 023°33'1414.2
2016-May-27 16:33N 37°27' E 023°38'1413.8
2016-May-27 15:33N 37°41' E 023°41'1413.7
2016-May-27 14:34N 37°54' E 023°37'3 3.1
2016-May-27 13:33N 37°57' E 023°38'0 0.0
2016-May-27 12:33N 37°57' E 023°38'0 0.0
2016-May-27 11:33N 37°57' E 023°38'0 0.0
2016-May-27 10:33N 37°57' E 023°38'0 0.0
2016-May-27 09:33N 37°57' E 023°38'2 1.6
2016-May-27 08:33N 37°56' E 023°37'1413.6
2016-May-27 07:33N 37°43' E 023°44'1414.0
2016-May-27 06:34N 37°29' E 023°40'1514.4
2016-May-27 05:33N 37°16' E 023°34'19 0.4
2016-May-25 09:31N 36°58' E 023°26'1414.4
2016-May-25 08:33N 37°11' E 023°32'1514.8
2016-May-25 07:33N 37°25' E 023°38'1414.4
2016-May-25 06:33N 37°39' E 023°41'1414.1
2016-May-25 05:34N 37°53' E 023°37'4 4.2
2016-May-25 04:33N 37°57' E 023°38'0 0.0
2016-May-25 03:33N 37°57' E 023°38'2 1.5
2016-May-25 02:33N 37°57' E 023°36'0 0.1
2016-May-25 01:33N 37°57' E 023°36'0 0.0
2016-May-25 00:33N 37°57' E 023°36'0 0.0
2016-May-24 23:33N 37°57' E 023°36'0 0.0
2016-May-24 22:33N 37°57' E 023°36'0 0.0
2016-May-24 21:33N 37°57' E 023°36'0 0.0
2016-May-24 20:33N 37°57' E 023°36'0 0.0
2016-May-24 19:33N 37°57' E 023°36'0 0.0
2016-May-24 18:33N 37°57' E 023°36'0 0.0
2016-May-24 17:33N 37°57' E 023°36'0 0.0
2016-May-24 16:33N 37°57' E 023°36'0 0.0
2016-May-24 15:33N 37°57' E 023°36'0 0.0
2016-May-24 14:33N 37°57' E 023°36'0 0.0
2016-May-24 13:33N 37°57' E 023°36'0 0.0
2016-May-24 12:33N 37°57' E 023°36'0 0.0
2016-May-24 11:33N 37°57' E 023°36'0 0.0
2016-May-24 10:33N 37°57' E 023°36'0 0.0
2016-May-24 09:33N 37°57' E 023°36'0 0.0
2016-May-24 08:33N 37°57' E 023°36'0 0.0
2016-May-24 07:33N 37°57' E 023°36'0 0.0
2016-May-24 06:33N 37°57' E 023°36'0 0.0
2016-May-24 05:33N 37°57' E 023°36'0 0.0
2016-May-24 04:33N 37°57' E 023°36'0 0.0
2016-May-24 03:33N 37°57' E 023°36'0 0.0
2016-May-24 02:33N 37°57' E 023°36'0 0.0
2016-May-24 01:33N 37°57' E 023°36'0 0.0
2016-May-24 00:33N 37°57' E 023°36'0 0.0
2016-May-23 23:33N 37°57' E 023°36'0 0.0
2016-May-23 22:33N 37°57' E 023°36'0 0.0
2016-May-23 21:33N 37°57' E 023°36'0 0.0
2016-May-23 20:33N 37°57' E 023°36'0 0.0
2016-May-23 19:33N 37°57' E 023°36'0 0.0
2016-May-23 18:33N 37°57' E 023°36'0 0.0
2016-May-23 17:33N 37°57' E 023°36'0 0.0
2016-May-23 16:33N 37°57' E 023°36'0 0.0
2016-May-23 15:33N 37°57' E 023°36'0 0.0
2016-May-23 14:33N 37°57' E 023°36'0 0.0
2016-May-23 13:33N 37°57' E 023°36'0 0.0
2016-May-23 12:34N 37°57' E 023°36'1 0.5
2016-May-23 11:33N 37°57' E 023°36'0 0.3
2016-May-23 10:33N 37°56' E 023°36'2 1.6
2016-May-23 09:33N 37°57' E 023°38'0 0.0
2016-May-23 08:33N 37°57' E 023°38'0 0.0
2016-May-23 07:33N 37°57' E 023°38'0 0.0
2016-May-23 06:33N 37°57' E 023°38'0 0.0
2016-May-23 05:33N 37°57' E 023°38'0 0.0
2016-May-23 04:33N 37°57' E 023°38'0 0.0
2016-May-23 03:33N 37°57' E 023°38'10 9.7
2016-May-23 02:34N 37°47' E 023°41'1313.3
2016-May-23 01:33N 37°34' E 023°43'1414.3
2016-May-23 00:33N 37°21' E 023°36'1414.3
2016-May-22 23:33N 37°07' E 023°30'1514.3
2016-May-22 22:30N 36°53' E 023°23'  
Track history (hours):
 
Tides and Currents Weather Stations Pressure Air Temp Water Temp Dewpoint Dewpoint Depression Visibility Wind Speed Wind Dir Waves Ship Positions

Vitsentzos Kornaros

Last reported at 2016-May-31 01:33 UTC. Time now 2016-May-31 02:09 UTC.
Position N 35°56' E 023°24'.

Length 128 m; draft 4.5 m.

Type: Passenger vessel. MMSI: 239311000.

Date/timePositionNaut miles runAvg speedWind from/ knotsBaromVisibWave heightAir tempDewpointWater temp
2016-May-31 01:33N 35°56' E 023°24'6310.0
2016-May-30 19:14N 36°59' E 023°26'912.2
2016-May-30 18:31N 37°07' E 023°30'1212.3
2016-May-30 17:34N 37°18' E 023°35'1312.5
2016-May-30 16:34N 37°30' E 023°39'1211.8
2016-May-30 15:34N 37°42' E 023°41'1212.2
2016-May-30 14:34N 37°54' E 023°37'3 3.4
2016-May-30 13:33N 37°57' E 023°38'0 0.0
2016-May-30 12:34N 37°57' E 023°38'0 0.0
2016-May-30 11:33N 37°57' E 023°38'0 0.0
2016-May-30 10:34N 37°57' E 023°38'0 0.0
2016-May-30 09:33N 37°57' E 023°38'0 0.0
2016-May-30 08:34N 37°57' E 023°38'0 0.0
2016-May-30 07:34N 37°57' E 023°38'0 0.0
2016-May-30 06:34N 37°57' E 023°38'0 0.0
2016-May-30 05:34N 37°57' E 023°38'0 0.0
2016-May-30 04:33N 37°57' E 023°38'0 0.0
2016-May-30 03:34N 37°57' E 023°38'10 9.9
2016-May-30 02:34N 37°47' E 023°42'1313.4
2016-May-30 01:34N 37°34' E 023°42'1414.2
2016-May-30 00:34N 37°21' E 023°36'1414.3
2016-May-29 23:33N 37°07' E 023°30'1414.2
2016-May-29 22:33N 36°54' E 023°25'1414.3
2016-May-29 21:33N 36°40' E 023°21'1513.7
2016-May-29 20:28N 36°25' E 023°15'19 6.6
2016-May-29 17:33N 36°06' E 023°13'1313.5
2016-May-29 16:33N 35°53' E 023°18'8 8.3
2016-May-29 15:32N 35°49' E 023°26'1414.5
2016-May-29 14:34N 35°38' E 023°37'7 6.7
2016-May-29 13:33N 35°31' E 023°38'0 0.0
2016-May-29 12:29N 35°31' E 023°38'0 0.0
2016-May-29 11:33N 35°31' E 023°38'0 0.0
2016-May-29 10:19N 35°31' E 023°38'0 0.0
2016-May-29 09:32N 35°31' E 023°38'0 0.0
2016-May-29 08:30N 35°31' E 023°38'0 0.0
2016-May-29 02:33N 35°31' E 023°38'0 0.0
2016-May-28 15:16N 35°31' E 023°38'0 0.0
2016-May-28 09:33N 35°31' E 023°38'9 1.3
2016-May-28 02:18N 35°40' E 023°36'3812.0
2016-May-27 23:07N 36°12' E 023°10'5011.1
2016-May-27 18:33N 36°60' E 023°27'1414.4
2016-May-27 17:33N 37°14' E 023°33'1414.2
2016-May-27 16:33N 37°27' E 023°38'1413.8
2016-May-27 15:33N 37°41' E 023°41'1413.7
2016-May-27 14:34N 37°54' E 023°37'3 3.1
2016-May-27 13:33N 37°57' E 023°38'0 0.0
2016-May-27 12:33N 37°57' E 023°38'0 0.0
2016-May-27 11:33N 37°57' E 023°38'0 0.0
2016-May-27 10:33N 37°57' E 023°38'0 0.0
2016-May-27 09:33N 37°57' E 023°38'2 1.6
2016-May-27 08:33N 37°56' E 023°37'1413.6
2016-May-27 07:33N 37°43' E 023°44'1414.0
2016-May-27 06:34N 37°29' E 023°40'1514.4
2016-May-27 05:33N 37°16' E 023°34'19 0.4
2016-May-25 09:31N 36°58' E 023°26'1414.4
2016-May-25 08:33N 37°11' E 023°32'1514.8
2016-May-25 07:33N 37°25' E 023°38'1414.4
2016-May-25 06:33N 37°39' E 023°41'1414.1
2016-May-25 05:34N 37°53' E 023°37'4 4.2
2016-May-25 04:33N 37°57' E 023°38'0 0.0
2016-May-25 03:33N 37°57' E 023°38'2 1.5
2016-May-25 02:33N 37°57' E 023°36'0 0.1
2016-May-25 01:33N 37°57' E 023°36'0 0.0
2016-May-25 00:33N 37°57' E 023°36'0 0.0
2016-May-24 23:33N 37°57' E 023°36'0 0.0
2016-May-24 22:33N 37°57' E 023°36'0 0.0
2016-May-24 21:33N 37°57' E 023°36'0 0.0
2016-May-24 20:33N 37°57' E 023°36'0 0.0
2016-May-24 19:33N 37°57' E 023°36'0 0.0
2016-May-24 18:33N 37°57' E 023°36'0 0.0
2016-May-24 17:33N 37°57' E 023°36'0 0.0
2016-May-24 16:33N 37°57' E 023°36'0 0.0
2016-May-24 15:33N 37°57' E 023°36'0 0.0
2016-May-24 14:33N 37°57' E 023°36'0 0.0
2016-May-24 13:33N 37°57' E 023°36'0 0.0
2016-May-24 12:33N 37°57' E 023°36'0 0.0
2016-May-24 11:33N 37°57' E 023°36'0 0.0
2016-May-24 10:33N 37°57' E 023°36'0 0.0
2016-May-24 09:33N 37°57' E 023°36'0 0.0
2016-May-24 08:33N 37°57' E 023°36'0 0.0
2016-May-24 07:33N 37°57' E 023°36'0 0.0
2016-May-24 06:33N 37°57' E 023°36'0 0.0
2016-May-24 05:33N 37°57' E 023°36'0 0.0
2016-May-24 04:33N 37°57' E 023°36'0 0.0
2016-May-24 03:33N 37°57' E 023°36'0 0.0
2016-May-24 02:33N 37°57' E 023°36'0 0.0
2016-May-24 01:33N 37°57' E 023°36'0 0.0
2016-May-24 00:33N 37°57' E 023°36'0 0.0
2016-May-23 23:33N 37°57' E 023°36'0 0.0
2016-May-23 22:33N 37°57' E 023°36'0 0.0
2016-May-23 21:33N 37°57' E 023°36'0 0.0
2016-May-23 20:33N 37°57' E 023°36'0 0.0
2016-May-23 19:33N 37°57' E 023°36'0 0.0
2016-May-23 18:33N 37°57' E 023°36'0 0.0
2016-May-23 17:33N 37°57' E 023°36'0 0.0
2016-May-23 16:33N 37°57' E 023°36'0 0.0
2016-May-23 15:33N 37°57' E 023°36'0 0.0
2016-May-23 14:33N 37°57' E 023°36'0 0.0
2016-May-23 13:33N 37°57' E 023°36'0 0.0
2016-May-23 12:34N 37°57' E 023°36'1 0.5
2016-May-23 11:33N 37°57' E 023°36'0 0.3
2016-May-23 10:33N 37°56' E 023°36'2 1.6
2016-May-23 09:33N 37°57' E 023°38'0 0.0
2016-May-23 08:33N 37°57' E 023°38'0 0.0
2016-May-23 07:33N 37°57' E 023°38'0 0.0
2016-May-23 06:33N 37°57' E 023°38'0 0.0
2016-May-23 05:33N 37°57' E 023°38'0 0.0
2016-May-23 04:33N 37°57' E 023°38'0 0.0
2016-May-23 03:33N 37°57' E 023°38'10 9.7
2016-May-23 02:34N 37°47' E 023°41'1313.3
2016-May-23 01:33N 37°34' E 023°43'1414.3
2016-May-23 00:33N 37°21' E 023°36'1414.3
2016-May-22 23:33N 37°07' E 023°30'1514.3
2016-May-22 22:30N 36°53' E 023°23'  

Dump ship's entire track history